Time;durP1;ratioP1;P1;durP2;ratioP2;P2;SDS_P1;SDS_P2;PMS_P1;PMS_P2;Temp;Humidity;BMP_temperature;BMP_pressure;BME280_temperature;BME280_humidity;BME280_pressure;Samples;Min_cycle;Max_cycle;Signal;HPM_P1;HPM_P2
2022/11/13 00:02:06;;;;;;;27.70;17.50;;;;;;;;;;5072227;28;20430;-81
2022/11/13 00:04:32;;;;;;;23.50;15.20;;;;;;;;;;5061667;28;20535;-81
2022/11/13 00:06:58;;;;;;;25.95;16.60;;;;;;;;;;5073545;28;20439;-81
2022/11/13 00:09:24;;;;;;;31.38;19.58;;;;;;;;;;5066762;28;20405;-81
2022/11/13 00:11:50;;;;;;;32.28;20.52;;;;;;;;;;5064326;28;20052;-81
2022/11/13 00:14:16;;;;;;;26.65;17.45;;;;;;;;;;5058286;28;20515;-81
2022/11/13 00:16:42;;;;;;;27.55;17.25;;;;;;;;;;5072410;28;20123;-81
2022/11/13 00:19:08;;;;;;;24.13;16.67;;;;;;;;;;5058156;28;20040;-81
2022/11/13 00:21:34;;;;;;;25.55;16.95;;;;;;;;;;5072212;28;20067;-81
2022/11/13 00:24:00;;;;;;;24.50;16.52;;;;;;;;;;5072272;28;20064;-81
2022/11/13 00:26:27;;;;;;;27.95;18.73;;;;;;;;;;5071989;28;20049;-81
2022/11/13 00:28:55;;;;;;;27.27;17.92;;;;;;;;;;5054154;28;20082;-82
2022/11/13 00:31:21;;;;;;;33.38;19.30;;;;;;;;;;5071888;28;20558;-75
2022/11/13 00:33:47;;;;;;;20.58;12.65;;;;;;;;;;5072082;28;20044;-75
2022/11/13 00:36:14;;;;;;;27.13;16.25;;;;;;;;;;5071571;28;20044;-76
2022/11/13 00:38:40;;;;;;;27.60;16.77;;;;;;;;;;5050674;28;20037;-81
2022/11/13 00:41:06;;;;;;;27.55;17.35;;;;;;;;;;5053195;28;20047;-81
2022/11/13 00:43:33;;;;;;;25.50;17.00;;;;;;;;;;5070180;28;20033;-81
2022/11/13 00:45:59;;;;;;;26.23;17.25;;;;;;;;;;5073406;28;20090;-81
2022/11/13 00:48:25;;;;;;;25.92;17.25;;;;;;;;;;5071879;28;20116;-82
2022/11/13 00:50:51;;;;;;;29.13;17.98;;;;;;;;;;5055192;28;20041;-81
2022/11/13 00:53:18;;;;;;;28.02;16.60;;;;;;;;;;5055239;28;20119;-82
2022/11/13 00:55:44;;;;;;;30.10;17.90;;;;;;;;;;5071449;28;20033;-81
2022/11/13 00:58:11;;;;;;;30.95;18.88;;;;;;;;;;5071013;28;20068;-81
2022/11/13 01:00:37;;;;;;;31.00;19.80;;;;;;;;;;5055330;28;20095;-81
2022/11/13 01:03:03;;;;;;;32.17;20.27;;;;;;;;;;5062656;28;20042;-81
2022/11/13 01:05:30;;;;;;;24.35;16.40;;;;;;;;;;5072749;28;20036;-81
2022/11/13 01:07:56;;;;;;;24.20;16.92;;;;;;;;;;5071987;28;20048;-81
2022/11/13 01:10:23;;;;;;;27.60;17.95;;;;;;;;;;5041058;28;20620;-81
2022/11/13 01:12:49;;;;;;;30.35;18.92;;;;;;;;;;5054481;28;20044;-81
2022/11/13 01:15:15;;;;;;;30.25;19.13;;;;;;;;;;5059515;28;20037;-81
2022/11/13 01:17:41;;;;;;;31.20;20.90;;;;;;;;;;5051390;28;20045;-75
2022/11/13 01:20:07;;;;;;;34.85;21.58;;;;;;;;;;5060918;28;20040;-76
2022/11/13 01:22:33;;;;;;;35.65;20.63;;;;;;;;;;5072758;28;20044;-76
2022/11/13 01:24:59;;;;;;;32.50;21.45;;;;;;;;;;5058401;28;20118;-75
2022/11/13 01:27:25;;;;;;;31.83;21.17;;;;;;;;;;5061888;28;20079;-75
2022/11/13 01:29:51;;;;;;;34.38;21.08;;;;;;;;;;5050806;28;20040;-75
2022/11/13 01:32:18;;;;;;;30.40;18.45;;;;;;;;;;5062438;28;20091;-75
2022/11/13 01:34:44;;;;;;;31.60;18.95;;;;;;;;;;5048695;28;20048;-75
2022/11/13 01:37:10;;;;;;;29.05;19.52;;;;;;;;;;5072193;28;20116;-75
2022/11/13 01:39:36;;;;;;;28.38;19.02;;;;;;;;;;5058852;28;20041;-75
2022/11/13 01:42:02;;;;;;;30.33;19.20;;;;;;;;;;5069426;28;20071;-75
2022/11/13 01:44:46;;;;;;;30.60;19.40;;;;;;;;;;5070905;28;20063;-75
2022/11/13 01:47:12;;;;;;;29.90;19.23;;;;;;;;;;5070565;28;20048;-75
2022/11/13 01:49:39;;;;;;;29.77;18.70;;;;;;;;;;5043609;28;20486;-75
2022/11/13 01:52:25;;;;;;;28.38;19.58;;;;;;;;;;5054369;28;20407;-75
2022/11/13 01:54:56;;;;;;;28.70;18.95;;;;;;;;;;5054387;28;20083;-75
2022/11/13 01:57:23;;;;;;;30.25;18.63;;;;;;;;;;5053698;28;20048;-75
2022/11/13 01:59:51;;;;;;;25.73;17.73;;;;;;;;;;5070900;28;20075;-75
2022/11/13 02:02:17;;;;;;;28.70;17.40;;;;;;;;;;5070487;28;20048;-81
2022/11/13 02:04:43;;;;;;;23.38;16.02;;;;;;;;;;5072209;28;20037;-81
2022/11/13 02:07:11;;;;;;;27.33;16.05;;;;;;;;;;5072160;28;20043;-81
2022/11/13 02:09:44;;;;;;;25.20;15.48;;;;;;;;;;5046581;28;20064;-75
2022/11/13 02:12:12;;;;;;;23.50;15.90;;;;;;;;;;5068012;28;20067;-75
2022/11/13 02:14:43;;;;;;;23.88;15.30;;;;;;;;;;5044707;28;20043;-80
2022/11/13 02:17:10;;;;;;;20.67;14.95;;;;;;;;;;5074615;28;20044;-81
2022/11/13 02:19:42;;;;;;;24.65;15.88;;;;;;;;;;5074734;28;20040;-81
2022/11/13 02:22:08;;;;;;;22.08;14.98;;;;;;;;;;5075811;28;20447;-81
2022/11/13 02:24:39;;;;;;;20.77;13.98;;;;;;;;;;5061340;28;20083;-81
2022/11/13 02:27:07;;;;;;;21.23;14.30;;;;;;;;;;5035986;28;20040;-81
2022/11/13 02:29:33;;;;;;;21.10;13.63;;;;;;;;;;5054434;28;20136;-81
2022/11/13 02:31:59;;;;;;;21.63;14.32;;;;;;;;;;5054754;28;20106;-81
2022/11/13 02:34:25;;;;;;;21.48;15.07;;;;;;;;;;5054366;28;20090;-75
2022/11/13 02:36:51;;;;;;;19.83;13.32;;;;;;;;;;5054366;28;20412;-75
2022/11/13 02:39:17;;;;;;;23.63;15.43;;;;;;;;;;5053881;28;20033;-75
2022/11/13 02:41:43;;;;;;;21.02;14.18;;;;;;;;;;5037668;28;20067;-75
2022/11/13 02:44:09;;;;;;;20.27;14.50;;;;;;;;;;5053962;28;20150;-75
2022/11/13 02:46:35;;;;;;;20.27;14.40;;;;;;;;;;5053948;28;20136;-75
2022/11/13 02:49:01;;;;;;;21.45;13.63;;;;;;;;;;5040824;28;20380;-75
2022/11/13 02:51:28;;;;;;;21.48;13.73;;;;;;;;;;5053645;28;20371;-75
2022/11/13 02:53:54;;;;;;;22.33;14.77;;;;;;;;;;5054163;28;20048;-75
2022/11/13 02:56:20;;;;;;;28.42;17.33;;;;;;;;;;5053620;28;20037;-74
2022/11/13 02:58:46;;;;;;;23.17;15.35;;;;;;;;;;5053912;28;20122;-75
2022/11/13 03:01:12;;;;;;;21.98;14.27;;;;;;;;;;5050687;28;20033;-75
2022/11/13 03:03:38;;;;;;;23.63;14.90;;;;;;;;;;5041580;28;20041;-75
2022/11/13 03:06:04;;;;;;;21.73;14.77;;;;;;;;;;5053111;28;20048;-75
2022/11/13 03:08:30;;;;;;;22.50;15.07;;;;;;;;;;5054886;28;20037;-75
2022/11/13 03:10:57;;;;;;;19.55;13.80;;;;;;;;;;5037026;28;20075;-75
2022/11/13 03:13:23;;;;;;;18.67;13.13;;;;;;;;;;5036747;28;20116;-75
2022/11/13 03:15:49;;;;;;;23.80;14.52;;;;;;;;;;5053842;28;20501;-75
2022/11/13 03:18:15;;;;;;;22.45;14.63;;;;;;;;;;5053314;28;20128;-75
2022/11/13 03:20:42;;;;;;;23.83;15.45;;;;;;;;;;5054567;28;20099;-75
2022/11/13 03:23:09;;;;;;;22.30;14.20;;;;;;;;;;5053144;28;20552;-75
2022/11/13 03:25:35;;;;;;;21.10;13.77;;;;;;;;;;5049220;28;20034;-75
2022/11/13 03:28:01;;;;;;;20.27;14.43;;;;;;;;;;5045782;28;20440;-75
2022/11/13 03:30:27;;;;;;;20.65;14.63;;;;;;;;;;5054136;28;20489;-75
2022/11/13 03:32:54;;;;;;;22.45;15.18;;;;;;;;;;5053398;28;20041;-75
2022/11/13 03:35:21;;;;;;;22.13;15.07;;;;;;;;;;5054408;28;20523;-75
2022/11/13 03:37:47;;;;;;;22.02;15.50;;;;;;;;;;5053318;28;20378;-81
2022/11/13 03:40:13;;;;;;;21.27;15.15;;;;;;;;;;5053407;28;20045;-75
2022/11/13 03:42:39;;;;;;;21.02;14.60;;;;;;;;;;5052843;28;20401;-75
2022/11/13 03:45:05;;;;;;;19.73;12.88;;;;;;;;;;5053260;28;20394;-75
2022/11/13 03:47:32;;;;;;;22.50;15.68;;;;;;;;;;5019491;28;20476;-75
2022/11/13 03:49:58;;;;;;;22.80;14.88;;;;;;;;;;5053113;28;20389;-75
2022/11/13 03:52:24;;;;;;;21.20;14.10;;;;;;;;;;5052878;28;20171;-75
2022/11/13 03:54:50;;;;;;;20.52;14.38;;;;;;;;;;5052538;28;20045;-75
2022/11/13 03:57:16;;;;;;;20.85;14.32;;;;;;;;;;5052716;28;20041;-81
2022/11/13 03:59:42;;;;;;;21.42;14.13;;;;;;;;;;5052351;28;20040;-81
2022/11/13 04:02:08;;;;;;;21.25;14.73;;;;;;;;;;5052882;28;20493;-81
2022/11/13 04:04:34;;;;;;;19.63;14.25;;;;;;;;;;5053675;28;20029;-81
2022/11/13 04:07:00;;;;;;;20.85;13.73;;;;;;;;;;5052955;28;20394;-81
2022/11/13 04:09:26;;;;;;;20.88;14.77;;;;;;;;;;5052099;28;20080;-80
2022/11/13 04:11:52;;;;;;;19.98;12.95;;;;;;;;;;5052481;28;20099;-81
2022/11/13 04:14:18;;;;;;;24.10;15.20;;;;;;;;;;5052461;28;20072;-81
2022/11/13 04:16:44;;;;;;;24.90;15.93;;;;;;;;;;5051939;28;20124;-82
2022/11/13 04:19:10;;;;;;;23.33;15.98;;;;;;;;;;5052234;28;20037;-76
2022/11/13 04:21:36;;;;;;;23.10;16.00;;;;;;;;;;5051972;28;20041;-76
2022/11/13 04:24:03;;;;;;;23.63;15.93;;;;;;;;;;5035731;28;20056;-81
2022/11/13 04:26:29;;;;;;;23.77;15.52;;;;;;;;;;5052220;28;20037;-81
2022/11/13 04:28:55;;;;;;;24.63;15.65;;;;;;;;;;5052256;28;20485;-81
2022/11/13 04:31:21;;;;;;;26.98;16.00;;;;;;;;;;5052188;28;20557;-81
2022/11/13 04:33:47;;;;;;;23.35;16.08;;;;;;;;;;5051981;28;20459;-82
2022/11/13 04:36:13;;;;;;;24.85;15.35;;;;;;;;;;5085514;28;20041;-81
2022/11/13 04:38:39;;;;;;;25.23;16.05;;;;;;;;;;5051376;28;20044;-81
2022/11/13 04:44:06;;;;;;;24.42;16.35;;;;;;;;;;4994934;28;20052;-76
2022/11/13 04:46:32;;;;;;;25.65;15.23;;;;;;;;;;5016477;28;20045;-75
2022/11/13 04:48:58;;;;;;;23.08;15.65;;;;;;;;;;5051786;28;20040;-75
2022/11/13 04:51:24;;;;;;;24.52;15.65;;;;;;;;;;5052135;28;20126;-75
2022/11/13 04:53:50;;;;;;;25.30;16.10;;;;;;;;;;5051262;28;20045;-76
2022/11/13 04:56:16;;;;;;;24.15;15.55;;;;;;;;;;5051558;28;20120;-75
2022/11/13 04:58:43;;;;;;;20.73;14.30;;;;;;;;;;5051388;28;20044;-76
2022/11/13 05:01:09;;;;;;;21.50;13.30;;;;;;;;;;5047865;28;20433;-76
2022/11/13 05:03:35;;;;;;;20.58;13.55;;;;;;;;;;5040781;28;20394;-75
2022/11/13 05:06:05;;;;;;;22.92;14.52;;;;;;;;;;5051518;28;20041;-75
2022/11/13 05:08:31;;;;;;;22.23;14.73;;;;;;;;;;5051479;28;20067;-76
2022/11/13 05:10:57;;;;;;;24.75;16.33;;;;;;;;;;5050825;28;20072;-76
2022/11/13 05:13:24;;;;;;;28.23;15.65;;;;;;;;;;5051836;28;20512;-82
2022/11/13 05:15:50;;;;;;;22.85;13.43;;;;;;;;;;5051129;28;20128;-82
2022/11/13 05:18:16;;;;;;;23.92;15.30;;;;;;;;;;5036493;28;20091;-82
2022/11/13 05:20:42;;;;;;;22.85;14.90;;;;;;;;;;5052434;28;20127;-82
2022/11/13 05:23:08;;;;;;;22.65;14.35;;;;;;;;;;5052246;28;20052;-82
2022/11/13 05:25:34;;;;;;;21.10;14.40;;;;;;;;;;5055130;28;20040;-81
2022/11/13 05:28:00;;;;;;;23.70;15.43;;;;;;;;;;5054061;28;20041;-81
2022/11/13 05:30:27;;;;;;;23.30;15.23;;;;;;;;;;5053976;28;20076;-81
2022/11/13 05:32:53;;;;;;;23.88;14.80;;;;;;;;;;5052634;28;20087;-81
2022/11/13 05:35:19;;;;;;;25.30;15.90;;;;;;;;;;5051301;28;20608;-81
2022/11/13 05:37:45;;;;;;;23.23;15.25;;;;;;;;;;5052399;28;20393;-81
2022/11/13 05:40:11;;;;;;;23.30;15.35;;;;;;;;;;5051220;28;20063;-82
2022/11/13 05:42:37;;;;;;;24.02;15.77;;;;;;;;;;5050899;28;20041;-81
2022/11/13 05:45:03;;;;;;;24.63;15.65;;;;;;;;;;5050324;28;20044;-81
2022/11/13 05:47:29;;;;;;;22.85;15.73;;;;;;;;;;5034460;28;20037;-81
2022/11/13 05:49:55;;;;;;;25.05;16.17;;;;;;;;;;5050687;28;20051;-81
2022/11/13 05:52:21;;;;;;;23.52;14.75;;;;;;;;;;5050838;28;20041;-81
2022/11/13 05:54:47;;;;;;;27.20;15.85;;;;;;;;;;5050558;28;20049;-81
2022/11/13 05:57:14;;;;;;;25.70;15.85;;;;;;;;;;5050865;28;20068;-81
2022/11/13 05:59:40;;;;;;;25.23;15.90;;;;;;;;;;5036857;28;20546;-81
2022/11/13 06:02:06;;;;;;;26.27;16.10;;;;;;;;;;5050843;28;20397;-81
2022/11/13 06:04:32;;;;;;;25.42;16.10;;;;;;;;;;5050559;28;20080;-81
2022/11/13 06:06:58;;;;;;;28.98;16.45;;;;;;;;;;5043809;28;20173;-81
2022/11/13 06:09:24;;;;;;;23.70;15.88;;;;;;;;;;5054859;28;20044;-81
2022/11/13 06:11:50;;;;;;;25.20;16.67;;;;;;;;;;5042662;28;20064;-81
2022/11/13 06:14:16;;;;;;;25.23;15.75;;;;;;;;;;5044512;28;20052;-81
2022/11/13 06:16:42;;;;;;;24.50;16.00;;;;;;;;;;5050535;28;20076;-82
2022/11/13 06:19:09;;;;;;;25.02;15.30;;;;;;;;;;5050168;28;20037;-81
2022/11/13 06:21:36;;;;;;;27.38;16.58;;;;;;;;;;5050870;28;20486;-81
2022/11/13 06:24:03;;;;;;;25.90;15.98;;;;;;;;;;5033625;28;20044;-81
2022/11/13 06:26:31;;;;;;;27.02;16.88;;;;;;;;;;5050751;28;20147;-82
2022/11/13 06:28:57;;;;;;;26.35;16.63;;;;;;;;;;5041620;28;20052;-82
2022/11/13 06:31:28;;;;;;;24.60;16.65;;;;;;;;;;5045177;28;20044;-82
2022/11/13 06:33:55;;;;;;;20.98;13.60;;;;;;;;;;5050094;28;20039;-81
2022/11/13 06:36:25;;;;;;;27.02;17.75;;;;;;;;;;5050374;28;20044;-81
2022/11/13 06:38:51;;;;;;;26.58;15.68;;;;;;;;;;5051635;28;20040;-81
2022/11/13 06:41:19;;;;;;;28.80;17.73;;;;;;;;;;5050708;28;20041;-82
2022/11/13 06:43:46;;;;;;;26.67;16.60;;;;;;;;;;5034185;28;20044;-81
2022/11/13 06:46:17;;;;;;;29.38;16.88;;;;;;;;;;5051565;28;20511;-76
2022/11/13 06:48:43;;;;;;;24.30;16.40;;;;;;;;;;5051643;28;20040;-75
2022/11/13 06:51:18;;;;;;;25.73;16.23;;;;;;;;;;5050059;28;20045;-75
2022/11/13 06:53:44;;;;;;;22.90;15.18;;;;;;;;;;5063545;28;20413;-75
2022/11/13 06:56:11;;;;;;;27.42;17.50;;;;;;;;;;5052403;28;20073;-75
2022/11/13 06:58:37;;;;;;;25.67;16.73;;;;;;;;;;5055385;28;20509;-75
2022/11/13 07:01:14;;;;;;;27.80;16.80;;;;;;;;;;5053539;28;20044;-75
2022/11/13 07:03:40;;;;;;;19.75;12.98;;;;;;;;;;5043751;28;20099;-76
2022/11/13 07:06:08;;;;;;;23.65;15.18;;;;;;;;;;5051300;28;20534;-75
2022/11/13 07:08:34;;;;;;;26.65;15.65;;;;;;;;;;5070865;28;20385;-76
2022/11/13 07:11:00;;;;;;;28.83;18.55;;;;;;;;;;5039099;28;20049;-75
2022/11/13 07:13:27;;;;;;;26.00;17.20;;;;;;;;;;5053844;28;20071;-75
2022/11/13 07:15:53;;;;;;;28.55;17.50;;;;;;;;;;5053643;28;20517;-76
2022/11/13 07:18:21;;;;;;;28.27;17.75;;;;;;;;;;5053603;28;20076;-75
2022/11/13 07:20:47;;;;;;;27.58;17.95;;;;;;;;;;5054698;28;20051;-75
2022/11/13 07:23:13;;;;;;;25.88;16.90;;;;;;;;;;5053485;28;20466;-75
2022/11/13 07:25:39;;;;;;;24.83;15.25;;;;;;;;;;5053923;28;20063;-81
2022/11/13 07:28:05;;;;;;;24.40;15.95;;;;;;;;;;5054131;28;20448;-81
2022/11/13 07:30:31;;;;;;;25.63;15.07;;;;;;;;;;5054592;28;20075;-76
2022/11/13 07:33:01;;;;;;;32.58;19.38;;;;;;;;;;5054588;28;20070;-75
2022/11/13 07:35:27;;;;;;;30.17;19.15;;;;;;;;;;5053735;28;20040;-75
2022/11/13 07:37:56;;;;;;;30.45;18.77;;;;;;;;;;5053331;28;20052;-75
2022/11/13 07:40:22;;;;;;;26.98;18.38;;;;;;;;;;5053568;28;20055;-82
2022/11/13 07:42:55;;;;;;;22.50;15.73;;;;;;;;;;5037417;28;20075;-82
2022/11/13 07:45:21;;;;;;;17.67;13.90;;;;;;;;;;5054205;28;20045;-82
2022/11/13 07:47:47;;;;;;;17.92;13.95;;;;;;;;;;5053894;28;20041;-75
2022/11/13 07:50:13;;;;;;;15.93;11.77;;;;;;;;;;5036254;28;20041;-77
2022/11/13 07:52:39;;;;;;;13.48;10.70;;;;;;;;;;5054069;28;20063;-74
2022/11/13 07:55:06;;;;;;;15.27;10.52;;;;;;;;;;5036633;28;20470;-74
2022/11/13 07:57:32;;;;;;;13.98;10.85;;;;;;;;;;5069626;28;20081;-74
2022/11/13 07:59:58;;;;;;;12.02;9.93;;;;;;;;;;5036216;28;20067;-75
2022/11/13 08:02:24;;;;;;;14.77;10.57;;;;;;;;;;5053063;28;20047;-81
2022/11/13 08:04:50;;;;;;;13.48;10.07;;;;;;;;;;5053556;28;20049;-81
2022/11/13 08:07:16;;;;;;;13.55;10.38;;;;;;;;;;5042722;28;20044;-81
2022/11/13 08:09:42;;;;;;;12.23;9.63;;;;;;;;;;5051266;28;20085;-81
2022/11/13 08:12:10;;;;;;;12.40;10.20;;;;;;;;;;5054765;28;20048;-81
2022/11/13 08:14:36;;;;;;;13.13;10.25;;;;;;;;;;5053494;28;20056;-81
2022/11/13 08:17:02;;;;;;;13.23;9.95;;;;;;;;;;5053617;28;20102;-81
2022/11/13 08:19:28;;;;;;;13.02;9.88;;;;;;;;;;5052646;28;20044;-81
2022/11/13 08:21:54;;;;;;;13.73;10.10;;;;;;;;;;5039930;28;20076;-82
2022/11/13 08:24:20;;;;;;;14.07;9.98;;;;;;;;;;5054982;28;20045;-81
2022/11/13 08:26:46;;;;;;;12.27;9.60;;;;;;;;;;5075676;28;20039;-82
2022/11/13 08:29:12;;;;;;;12.70;9.07;;;;;;;;;;5053285;28;20052;-81
2022/11/13 08:31:38;;;;;;;10.73;9.27;;;;;;;;;;5052734;28;20045;-82
2022/11/13 08:34:04;;;;;;;12.50;9.25;;;;;;;;;;5057929;28;20025;-82
2022/11/13 08:36:30;;;;;;;12.63;9.45;;;;;;;;;;5053750;28;20037;-81
2022/11/13 08:38:56;;;;;;;12.85;9.75;;;;;;;;;;5022180;28;20071;-81
2022/11/13 08:41:22;;;;;;;12.88;9.45;;;;;;;;;;5053316;28;20141;-83
2022/11/13 08:43:48;;;;;;;11.68;9.55;;;;;;;;;;5036348;28;20047;-82
2022/11/13 08:46:14;;;;;;;11.73;9.35;;;;;;;;;;5053116;28;20037;-82
2022/11/13 08:48:41;;;;;;;13.10;8.70;;;;;;;;;;5052111;28;20048;-74
2022/11/13 08:51:07;;;;;;;12.45;9.20;;;;;;;;;;5037950;28;20051;-82
2022/11/13 08:53:33;;;;;;;12.00;9.23;;;;;;;;;;5052343;28;20049;-82
2022/11/13 08:56:00;;;;;;;12.40;9.13;;;;;;;;;;5035852;28;20036;-82
2022/11/13 08:58:26;;;;;;;11.27;9.18;;;;;;;;;;5052692;28;20052;-83
2022/11/13 09:00:52;;;;;;;12.57;9.13;;;;;;;;;;5053260;28;20049;-82
2022/11/13 09:03:19;;;;;;;10.57;8.57;;;;;;;;;;5054351;28;20068;-76
2022/11/13 09:05:45;;;;;;;13.70;8.13;;;;;;;;;;5052005;28;20041;-76
2022/11/13 09:08:11;;;;;;;10.45;8.57;;;;;;;;;;5051438;28;20435;-76
2022/11/13 09:10:37;;;;;;;10.82;8.80;;;;;;;;;;5051599;28;20521;-76
2022/11/13 09:13:04;;;;;;;11.15;8.80;;;;;;;;;;5035149;28;20036;-76
2022/11/13 09:15:31;;;;;;;10.55;7.95;;;;;;;;;;5052982;28;20078;-76
2022/11/13 09:17:58;;;;;;;10.43;8.27;;;;;;;;;;5032519;28;20045;-77
2022/11/13 09:20:25;;;;;;;11.38;8.57;;;;;;;;;;5022557;28;20037;-76
2022/11/13 09:23:01;;;;;;;9.43;7.63;;;;;;;;;;5051573;28;20412;-77
2022/11/13 09:25:28;;;;;;;9.80;7.68;;;;;;;;;;5051331;28;20597;-77
2022/11/13 09:27:55;;;;;;;12.88;8.82;;;;;;;;;;5051405;28;20048;-76
2022/11/13 09:30:21;;;;;;;9.60;7.63;;;;;;;;;;5052482;28;20060;-83
2022/11/13 09:32:47;;;;;;;8.93;7.72;;;;;;;;;;5051757;28;20052;-77
2022/11/13 09:35:13;;;;;;;9.52;8.00;;;;;;;;;;5050782;28;20086;-77
2022/11/13 09:37:39;;;;;;;7.97;7.13;;;;;;;;;;5046539;28;20042;-76
2022/11/13 09:40:05;;;;;;;9.77;7.60;;;;;;;;;;5045467;28;20116;-83
2022/11/13 09:42:32;;;;;;;9.48;7.40;;;;;;;;;;5052582;28;20490;-84
2022/11/13 09:45:06;;;;;;;10.93;7.40;;;;;;;;;;5085336;28;20041;-84
2022/11/13 09:47:46;;;;;;;9.70;7.10;;;;;;;;;;5051740;28;20041;-83
2022/11/13 09:50:23;;;;;;;8.82;7.40;;;;;;;;;;5052296;28;20045;-84
2022/11/13 09:52:50;;;;;;;8.38;6.90;;;;;;;;;;5051490;28;20513;-84
2022/11/13 09:55:18;;;;;;;7.38;6.63;;;;;;;;;;5051073;28;20110;-84
2022/11/13 09:58:03;;;;;;;8.88;6.57;;;;;;;;;;5051417;28;20106;-83
2022/11/13 10:00:30;;;;;;;9.83;7.30;;;;;;;;;;5051528;28;20041;-83
2022/11/13 10:03:13;;;;;;;8.23;7.32;;;;;;;;;;5051370;28;20041;-84
2022/11/13 10:05:42;;;;;;;9.30;7.18;;;;;;;;;;5052026;28;20048;-83
2022/11/13 10:08:20;;;;;;;7.72;6.93;;;;;;;;;;5053339;28;20382;-83
2022/11/13 10:10:54;;;;;;;8.32;6.75;;;;;;;;;;5051398;28;20061;-84
2022/11/13 10:13:34;;;;;;;8.25;6.95;;;;;;;;;;5037698;28;20044;-77
2022/11/13 10:16:15;;;;;;;7.63;6.60;;;;;;;;;;5085288;28;20494;-77
2022/11/13 10:18:42;;;;;;;9.32;7.32;;;;;;;;;;5038971;28;20128;-76
2022/11/13 10:21:26;;;;;;;7.60;6.82;;;;;;;;;;5050882;28;20045;-76
2022/11/13 10:23:55;;;;;;;9.10;7.05;;;;;;;;;;5050857;28;20091;-76
2022/11/13 10:26:23;;;;;;;7.97;6.70;;;;;;;;;;5051130;28;20052;-76
2022/11/13 10:28:54;;;;;;;7.55;6.60;;;;;;;;;;5034381;28;20163;-76
2022/11/13 10:31:21;;;;;;;8.70;6.93;;;;;;;;;;5050566;28;20052;-76
2022/11/13 10:33:47;;;;;;;9.02;7.05;;;;;;;;;;5054597;28;20041;-76
2022/11/13 10:36:13;;;;;;;8.20;7.03;;;;;;;;;;5054682;28;20041;-77
2022/11/13 10:38:43;;;;;;;9.55;6.88;;;;;;;;;;5054089;28;20397;-76
2022/11/13 10:41:09;;;;;;;9.43;6.93;;;;;;;;;;5055062;28;20115;-76
2022/11/13 10:43:35;;;;;;;7.85;6.38;;;;;;;;;;5054442;28;20045;-76
2022/11/13 10:46:03;;;;;;;7.78;6.55;;;;;;;;;;5048096;28;20063;-82
2022/11/13 10:48:31;;;;;;;8.23;6.60;;;;;;;;;;5048617;28;20048;-82
2022/11/13 10:51:00;;;;;;;7.63;6.47;;;;;;;;;;5074134;28;20048;-76
2022/11/13 10:53:27;;;;;;;6.97;6.13;;;;;;;;;;5074058;28;20041;-76
2022/11/13 10:55:56;;;;;;;7.35;6.50;;;;;;;;;;5074130;28;20059;-76
2022/11/13 10:58:22;;;;;;;8.38;6.35;;;;;;;;;;5073877;28;20045;-76
2022/11/13 11:00:49;;;;;;;7.15;6.30;;;;;;;;;;5071273;28;20036;-76
2022/11/13 11:03:22;;;;;;;7.13;5.95;;;;;;;;;;5063448;28;20056;-76
2022/11/13 11:05:52;;;;;;;7.50;6.10;;;;;;;;;;5058502;28;20051;-82
2022/11/13 11:08:21;;;;;;;7.20;5.78;;;;;;;;;;5064853;28;20554;-76
2022/11/13 11:13:42;;;;;;;6.47;5.70;;;;;;;;;;5063456;28;20044;-76
2022/11/13 11:16:11;;;;;;;8.15;6.60;;;;;;;;;;5071641;28;20044;-76
2022/11/13 11:18:50;;;;;;;9.50;6.00;;;;;;;;;;5076725;28;20041;-74
2022/11/13 11:21:19;;;;;;;7.00;5.65;;;;;;;;;;5074155;28;20068;-76
2022/11/13 11:23:50;;;;;;;8.05;6.45;;;;;;;;;;5074876;28;20059;-82
2022/11/13 11:26:16;;;;;;;6.72;5.70;;;;;;;;;;5074076;28;20485;-82
2022/11/13 11:29:05;;;;;;;8.43;6.35;;;;;;;;;;5066359;28;20048;-82
2022/11/13 11:31:37;;;;;;;7.13;6.40;;;;;;;;;;5039292;28;20063;-82
2022/11/13 11:34:20;;;;;;;7.45;6.38;;;;;;;;;;5069849;28;20090;-75
2022/11/13 11:37:00;;;;;;;8.00;6.20;;;;;;;;;;5053575;28;20128;-75
2022/11/13 11:39:45;;;;;;;7.20;5.88;;;;;;;;;;5040596;28;20116;-75
2022/11/13 11:42:23;;;;;;;10.32;6.40;;;;;;;;;;5036522;28;20051;-75
2022/11/13 11:44:55;;;;;;;9.05;6.18;;;;;;;;;;5054023;28;20429;-75
2022/11/13 11:47:21;;;;;;;8.20;6.28;;;;;;;;;;5053628;28;20114;-75
2022/11/13 11:49:48;;;;;;;7.05;5.80;;;;;;;;;;5053196;28;20133;-75
2022/11/13 11:52:23;;;;;;;7.03;5.93;;;;;;;;;;5039121;28;20041;-75
2022/11/13 11:55:00;;;;;;;8.65;5.82;;;;;;;;;;5036601;28;20124;-75
2022/11/13 11:57:30;;;;;;;7.43;5.95;;;;;;;;;;5054074;28;20076;-75
2022/11/13 11:59:56;;;;;;;8.45;5.70;;;;;;;;;;5053605;28;20112;-74
2022/11/13 12:02:45;;;;;;;7.80;5.88;;;;;;;;;;5054050;28;20053;-75
2022/11/13 12:05:22;;;;;;;7.85;5.78;;;;;;;;;;5042399;28;20114;-75
2022/11/13 12:08:09;;;;;;;9.23;5.68;;;;;;;;;;5053831;28;20107;-74
2022/11/13 12:10:35;;;;;;;6.75;5.47;;;;;;;;;;5053030;28;20051;-74
2022/11/13 12:13:04;;;;;;;7.40;5.47;;;;;;;;;;5049575;28;20088;-74
2022/11/13 12:15:34;;;;;;;6.97;4.95;;;;;;;;;;5042486;28;20051;-74
2022/11/13 12:18:14;;;;;;;7.07;5.15;;;;;;;;;;5022064;28;20049;-74
2022/11/13 12:20:49;;;;;;;5.68;4.25;;;;;;;;;;5052817;28;20123;-75
2022/11/13 12:23:15;;;;;;;7.70;4.80;;;;;;;;;;5052550;28;20124;-74
2022/11/13 12:25:46;;;;;;;6.45;4.63;;;;;;;;;;5052539;28;20455;-74
2022/11/13 12:28:38;;;;;;;6.88;4.85;;;;;;;;;;5052453;28;20047;-75
2022/11/13 12:31:12;;;;;;;7.82;4.78;;;;;;;;;;5038406;28;20049;-75
2022/11/13 12:33:47;;;;;;;7.43;5.03;;;;;;;;;;5051220;28;20033;-75
2022/11/13 12:36:13;;;;;;;6.72;4.60;;;;;;;;;;5035842;28;20044;-75
2022/11/13 12:38:47;;;;;;;7.72;4.80;;;;;;;;;;5035558;28;20041;-74
2022/11/13 12:41:22;;;;;;;6.88;5.22;;;;;;;;;;5053688;28;20036;-75
2022/11/13 12:44:11;;;;;;;7.50;4.90;;;;;;;;;;5051758;28;20041;-75
2022/11/13 12:46:38;;;;;;;7.20;4.70;;;;;;;;;;5050315;28;20059;-75
2022/11/13 12:49:26;;;;;;;6.82;5.05;;;;;;;;;;5051965;28;20044;-75
2022/11/13 12:51:53;;;;;;;6.97;5.05;;;;;;;;;;5051897;28;20041;-75
2022/11/13 12:54:30;;;;;;;6.72;4.97;;;;;;;;;;5047521;28;20037;-75
2022/11/13 12:57:07;;;;;;;7.90;5.03;;;;;;;;;;5043892;28;20045;-74
2022/11/13 12:59:36;;;;;;;6.95;4.82;;;;;;;;;;5080645;28;20042;-75
2022/11/13 13:02:02;;;;;;;7.10;5.15;;;;;;;;;;5076463;28;20401;-74
2022/11/13 13:04:42;;;;;;;6.90;4.80;;;;;;;;;;5051794;28;20035;-75
2022/11/13 13:07:22;;;;;;;8.48;5.25;;;;;;;;;;5051615;28;20044;-75
2022/11/13 13:09:51;;;;;;;6.28;4.47;;;;;;;;;;5052924;28;20091;-74
2022/11/13 13:12:26;;;;;;;7.78;4.50;;;;;;;;;;5084837;28;20061;-74
2022/11/13 13:15:01;;;;;;;7.35;5.03;;;;;;;;;;5052656;28;20036;-74
2022/11/13 13:17:27;;;;;;;6.03;4.63;;;;;;;;;;5052658;28;20052;-74
2022/11/13 13:20:01;;;;;;;7.20;4.95;;;;;;;;;;5038484;28;20275;-74
2022/11/13 13:22:31;;;;;;;6.30;4.57;;;;;;;;;;5051358;28;20076;-74
2022/11/13 13:24:59;;;;;;;7.22;4.40;;;;;;;;;;5051052;28;20049;-74
2022/11/13 13:27:26;;;;;;;5.85;4.40;;;;;;;;;;5052482;28;20068;-74
2022/11/13 13:29:52;;;;;;;6.53;4.30;;;;;;;;;;5050996;28;20102;-74
2022/11/13 13:32:33;;;;;;;6.65;4.70;;;;;;;;;;5051597;28;20037;-74
2022/11/13 13:35:16;;;;;;;6.80;4.57;;;;;;;;;;5050969;28;20044;-75
2022/11/13 13:37:45;;;;;;;6.53;4.78;;;;;;;;;;5037858;28;20490;-74
2022/11/13 13:40:26;;;;;;;6.18;4.30;;;;;;;;;;5034633;28;20090;-75
2022/11/13 13:42:58;;;;;;;6.32;4.55;;;;;;;;;;5038232;28;20044;-74
2022/11/13 13:45:43;;;;;;;7.07;4.55;;;;;;;;;;5050804;28;20123;-74
2022/11/13 13:48:10;;;;;;;7.22;4.38;;;;;;;;;;5051416;28;20120;-74
2022/11/13 13:50:41;;;;;;;6.85;4.88;;;;;;;;;;5052370;28;20043;-74
2022/11/13 13:53:08;;;;;;;8.13;4.85;;;;;;;;;;5051228;28;20390;-74
2022/11/13 13:55:43;;;;;;;7.38;4.40;;;;;;;;;;5053904;28;20393;-75
2022/11/13 13:58:12;;;;;;;6.50;4.75;;;;;;;;;;5039242;28;20044;-75
2022/11/13 14:00:38;;;;;;;7.88;4.82;;;;;;;;;;5052189;28;20044;-75
2022/11/13 14:03:04;;;;;;;6.13;4.80;;;;;;;;;;5034092;28;20045;-75
2022/11/13 14:05:34;;;;;;;6.75;4.70;;;;;;;;;;5053275;28;20111;-74
2022/11/13 14:08:06;;;;;;;6.07;4.45;;;;;;;;;;5055982;28;20151;-75
2022/11/13 14:10:34;;;;;;;6.18;4.88;;;;;;;;;;5055100;28;20052;-75
2022/11/13 14:13:03;;;;;;;6.15;4.53;;;;;;;;;;5040551;28;20052;-75
2022/11/13 14:15:31;;;;;;;6.68;4.75;;;;;;;;;;5054724;28;20056;-75
2022/11/13 14:18:07;;;;;;;7.85;5.20;;;;;;;;;;5054242;28;20052;-75
2022/11/13 14:20:53;;;;;;;6.45;4.82;;;;;;;;;;5038621;28;20041;-75
2022/11/13 14:23:26;;;;;;;7.93;4.75;;;;;;;;;;5038050;28;20037;-75
2022/11/13 14:25:53;;;;;;;9.00;4.70;;;;;;;;;;5054573;28;20053;-75
2022/11/13 14:28:24;;;;;;;7.35;5.30;;;;;;;;;;5043352;28;20389;-75
2022/11/13 14:30:59;;;;;;;7.72;5.00;;;;;;;;;;5054619;28;20132;-75
2022/11/13 14:33:45;;;;;;;8.75;5.95;;;;;;;;;;5040689;28;20512;-75
2022/11/13 14:36:11;;;;;;;7.77;5.03;;;;;;;;;;5042615;28;20045;-75
2022/11/13 14:38:41;;;;;;;8.10;5.10;;;;;;;;;;5055722;28;20400;-75
2022/11/13 14:41:14;;;;;;;7.55;5.65;;;;;;;;;;5054167;28;20264;-75